sensor_id;sensor_type;location;lat;lon;timestamp;P1;durP1;ratioP1;P2;durP2;ratioP2
67433;SDS011;54305;47.950;6.572;2024-03-06T00:01:29;13.35;;;3.83;;
67433;SDS011;54305;47.950;6.572;2024-03-06T00:03:54;6.82;;;3.67;;
67433;SDS011;54305;47.950;6.572;2024-03-06T00:06:20;7.75;;;3.92;;
67433;SDS011;54305;47.950;6.572;2024-03-06T00:08:45;7.20;;;3.38;;
67433;SDS011;54305;47.950;6.572;2024-03-06T00:11:10;10.13;;;3.60;;
67433;SDS011;54305;47.950;6.572;2024-03-06T00:13:36;7.65;;;3.15;;
67433;SDS011;54305;47.950;6.572;2024-03-06T00:16:01;6.68;;;2.65;;
67433;SDS011;54305;47.950;6.572;2024-03-06T00:18:26;5.88;;;2.75;;
67433;SDS011;54305;47.950;6.572;2024-03-06T00:20:52;6.88;;;3.15;;
67433;SDS011;54305;47.950;6.572;2024-03-06T00:23:17;6.30;;;3.45;;
67433;SDS011;54305;47.950;6.572;2024-03-06T00:25:43;9.32;;;3.58;;
67433;SDS011;54305;47.950;6.572;2024-03-06T00:28:08;10.43;;;3.80;;
67433;SDS011;54305;47.950;6.572;2024-03-06T00:30:33;7.18;;;3.88;;
67433;SDS011;54305;47.950;6.572;2024-03-06T00:32:59;10.30;;;4.03;;
67433;SDS011;54305;47.950;6.572;2024-03-06T00:35:24;10.93;;;3.90;;
67433;SDS011;54305;47.950;6.572;2024-03-06T00:37:51;7.80;;;3.75;;
67433;SDS011;54305;47.950;6.572;2024-03-06T00:40:18;8.20;;;3.17;;
67433;SDS011;54305;47.950;6.572;2024-03-06T00:42:43;11.38;;;3.92;;
67433;SDS011;54305;47.950;6.572;2024-03-06T00:45:09;6.75;;;3.63;;
67433;SDS011;54305;47.950;6.572;2024-03-06T00:47:34;11.18;;;3.58;;
67433;SDS011;54305;47.950;6.572;2024-03-06T00:50:00;6.45;;;4.00;;
67433;SDS011;54305;47.950;6.572;2024-03-06T00:52:26;8.07;;;4.05;;
67433;SDS011;54305;47.950;6.572;2024-03-06T00:54:52;9.45;;;3.70;;
67433;SDS011;54305;47.950;6.572;2024-03-06T00:57:17;7.95;;;3.40;;
67433;SDS011;54305;47.950;6.572;2024-03-06T00:59:42;6.97;;;3.17;;
67433;SDS011;54305;47.950;6.572;2024-03-06T01:02:08;9.30;;;4.13;;
67433;SDS011;54305;47.950;6.572;2024-03-06T01:04:33;12.02;;;3.78;;
67433;SDS011;54305;47.950;6.572;2024-03-06T01:06:59;11.13;;;4.32;;
67433;SDS011;54305;47.950;6.572;2024-03-06T01:09:24;7.38;;;3.53;;
67433;SDS011;54305;47.950;6.572;2024-03-06T01:11:49;9.00;;;3.72;;
67433;SDS011;54305;47.950;6.572;2024-03-06T01:14:15;10.50;;;4.47;;
67433;SDS011;54305;47.950;6.572;2024-03-06T01:16:41;10.40;;;4.15;;
67433;SDS011;54305;47.950;6.572;2024-03-06T01:19:07;9.10;;;4.00;;
67433;SDS011;54305;47.950;6.572;2024-03-06T01:21:32;11.40;;;3.92;;
67433;SDS011;54305;47.950;6.572;2024-03-06T01:23:59;7.07;;;4.07;;
67433;SDS011;54305;47.950;6.572;2024-03-06T01:26:25;9.98;;;4.22;;
67433;SDS011;54305;47.950;6.572;2024-03-06T01:28:50;10.38;;;4.30;;
67433;SDS011;54305;47.950;6.572;2024-03-06T01:31:16;8.38;;;4.28;;
67433;SDS011;54305;47.950;6.572;2024-03-06T01:33:42;9.18;;;4.18;;
67433;SDS011;54305;47.950;6.572;2024-03-06T01:36:07;8.40;;;3.80;;
67433;SDS011;54305;47.950;6.572;2024-03-06T01:38:33;8.93;;;3.97;;
67433;SDS011;54305;47.950;6.572;2024-03-06T01:40:58;9.80;;;4.47;;
67433;SDS011;54305;47.950;6.572;2024-03-06T01:43:24;8.35;;;4.50;;
67433;SDS011;54305;47.950;6.572;2024-03-06T01:45:51;9.27;;;4.30;;
67433;SDS011;54305;47.950;6.572;2024-03-06T01:48:19;8.52;;;4.50;;
67433;SDS011;54305;47.950;6.572;2024-03-06T01:50:46;6.60;;;3.58;;
67433;SDS011;54305;47.950;6.572;2024-03-06T01:53:12;6.57;;;3.85;;
67433;SDS011;54305;47.950;6.572;2024-03-06T01:55:39;8.52;;;4.30;;
67433;SDS011;54305;47.950;6.572;2024-03-06T01:58:05;8.30;;;3.45;;
67433;SDS011;54305;47.950;6.572;2024-03-06T02:00:31;8.93;;;3.92;;
67433;SDS011;54305;47.950;6.572;2024-03-06T02:02:58;9.50;;;4.30;;
67433;SDS011;54305;47.950;6.572;2024-03-06T02:05:24;8.13;;;4.03;;
67433;SDS011;54305;47.950;6.572;2024-03-06T02:07:50;10.48;;;4.47;;
67433;SDS011;54305;47.950;6.572;2024-03-06T02:10:17;9.23;;;4.55;;
67433;SDS011;54305;47.950;6.572;2024-03-06T02:12:43;10.00;;;4.40;;
67433;SDS011;54305;47.950;6.572;2024-03-06T02:15:10;9.25;;;3.83;;
67433;SDS011;54305;47.950;6.572;2024-03-06T02:17:37;9.27;;;3.92;;
67433;SDS011;54305;47.950;6.572;2024-03-06T02:20:03;9.18;;;4.10;;
67433;SDS011;54305;47.950;6.572;2024-03-06T02:22:31;8.02;;;3.70;;
67433;SDS011;54305;47.950;6.572;2024-03-06T02:24:57;8.57;;;3.88;;
67433;SDS011;54305;47.950;6.572;2024-03-06T02:27:23;9.45;;;4.20;;
67433;SDS011;54305;47.950;6.572;2024-03-06T02:29:48;8.98;;;4.07;;
67433;SDS011;54305;47.950;6.572;2024-03-06T02:32:13;11.07;;;4.13;;
67433;SDS011;54305;47.950;6.572;2024-03-06T02:34:39;10.80;;;4.28;;
67433;SDS011;54305;47.950;6.572;2024-03-06T02:37:05;7.78;;;4.45;;
67433;SDS011;54305;47.950;6.572;2024-03-06T02:39:31;10.70;;;3.78;;
67433;SDS011;54305;47.950;6.572;2024-03-06T02:41:57;11.02;;;4.80;;
67433;SDS011;54305;47.950;6.572;2024-03-06T02:44:22;10.00;;;3.80;;
67433;SDS011;54305;47.950;6.572;2024-03-06T02:46:48;13.73;;;4.25;;
67433;SDS011;54305;47.950;6.572;2024-03-06T02:49:14;12.50;;;4.30;;
67433;SDS011;54305;47.950;6.572;2024-03-06T02:51:40;8.60;;;4.55;;
67433;SDS011;54305;47.950;6.572;2024-03-06T02:54:06;12.93;;;4.53;;
67433;SDS011;54305;47.950;6.572;2024-03-06T02:56:31;10.63;;;4.72;;
67433;SDS011;54305;47.950;6.572;2024-03-06T02:58:56;11.02;;;4.25;;
67433;SDS011;54305;47.950;6.572;2024-03-06T03:01:22;11.00;;;5.28;;
67433;SDS011;54305;47.950;6.572;2024-03-06T03:03:48;14.23;;;5.07;;
67433;SDS011;54305;47.950;6.572;2024-03-06T03:06:14;12.85;;;5.68;;
67433;SDS011;54305;47.950;6.572;2024-03-06T03:08:39;12.18;;;4.88;;
67433;SDS011;54305;47.950;6.572;2024-03-06T03:11:05;9.35;;;4.47;;
67433;SDS011;54305;47.950;6.572;2024-03-06T03:13:30;7.47;;;4.05;;
67433;SDS011;54305;47.950;6.572;2024-03-06T03:15:56;10.50;;;5.43;;
67433;SDS011;54305;47.950;6.572;2024-03-06T03:18:22;10.45;;;5.10;;
67433;SDS011;54305;47.950;6.572;2024-03-06T03:20:47;17.10;;;5.45;;
67433;SDS011;54305;47.950;6.572;2024-03-06T03:23:12;9.07;;;4.50;;
67433;SDS011;54305;47.950;6.572;2024-03-06T03:25:40;11.60;;;5.38;;
67433;SDS011;54305;47.950;6.572;2024-03-06T03:28:09;9.57;;;4.97;;
67433;SDS011;54305;47.950;6.572;2024-03-06T03:30:35;12.60;;;5.03;;
67433;SDS011;54305;47.950;6.572;2024-03-06T03:33:00;47.05;;;7.68;;
67433;SDS011;54305;47.950;6.572;2024-03-06T03:35:25;13.77;;;5.10;;
67433;SDS011;54305;47.950;6.572;2024-03-06T03:37:51;16.98;;;5.75;;
67433;SDS011;54305;47.950;6.572;2024-03-06T03:40:17;59.60;;;7.45;;
67433;SDS011;54305;47.950;6.572;2024-03-06T03:42:46;20.15;;;6.82;;
67433;SDS011;54305;47.950;6.572;2024-03-06T03:45:11;82.35;;;8.90;;
67433;SDS011;54305;47.950;6.572;2024-03-06T03:47:36;10.63;;;5.13;;
67433;SDS011;54305;47.950;6.572;2024-03-06T03:50:02;9.90;;;5.07;;
67433;SDS011;54305;47.950;6.572;2024-03-06T03:52:29;17.92;;;5.15;;
67433;SDS011;54305;47.950;6.572;2024-03-06T03:54:54;13.43;;;5.53;;
67433;SDS011;54305;47.950;6.572;2024-03-06T03:57:20;12.90;;;5.40;;
67433;SDS011;54305;47.950;6.572;2024-03-06T03:59:45;12.15;;;4.50;;
67433;SDS011;54305;47.950;6.572;2024-03-06T04:02:11;27.75;;;5.78;;
67433;SDS011;54305;47.950;6.572;2024-03-06T04:04:36;15.93;;;6.00;;
67433;SDS011;54305;47.950;6.572;2024-03-06T04:07:02;13.10;;;5.68;;
67433;SDS011;54305;47.950;6.572;2024-03-06T04:09:27;12.80;;;5.20;;
67433;SDS011;54305;47.950;6.572;2024-03-06T04:11:53;14.98;;;6.13;;
67433;SDS011;54305;47.950;6.572;2024-03-06T04:14:18;16.27;;;6.30;;
67433;SDS011;54305;47.950;6.572;2024-03-06T04:16:47;19.67;;;5.85;;
67433;SDS011;54305;47.950;6.572;2024-03-06T04:19:12;15.43;;;6.07;;
67433;SDS011;54305;47.950;6.572;2024-03-06T04:21:43;21.10;;;6.47;;
67433;SDS011;54305;47.950;6.572;2024-03-06T04:24:09;14.70;;;5.22;;
67433;SDS011;54305;47.950;6.572;2024-03-06T04:26:34;11.35;;;5.72;;
67433;SDS011;54305;47.950;6.572;2024-03-06T04:29:00;19.25;;;6.05;;
67433;SDS011;54305;47.950;6.572;2024-03-06T04:31:26;15.43;;;6.28;;
67433;SDS011;54305;47.950;6.572;2024-03-06T04:33:51;14.88;;;5.20;;
67433;SDS011;54305;47.950;6.572;2024-03-06T04:36:16;12.68;;;5.35;;
67433;SDS011;54305;47.950;6.572;2024-03-06T04:38:42;12.15;;;5.18;;
67433;SDS011;54305;47.950;6.572;2024-03-06T04:41:08;11.50;;;5.55;;
67433;SDS011;54305;47.950;6.572;2024-03-06T04:43:34;14.25;;;5.35;;
67433;SDS011;54305;47.950;6.572;2024-03-06T04:46:00;12.70;;;5.30;;
67433;SDS011;54305;47.950;6.572;2024-03-06T04:48:25;9.65;;;4.53;;
67433;SDS011;54305;47.950;6.572;2024-03-06T04:50:51;14.90;;;4.85;;
67433;SDS011;54305;47.950;6.572;2024-03-06T04:53:16;9.57;;;4.63;;
67433;SDS011;54305;47.950;6.572;2024-03-06T04:55:42;16.63;;;5.35;;
67433;SDS011;54305;47.950;6.572;2024-03-06T04:58:07;10.93;;;5.05;;
67433;SDS011;54305;47.950;6.572;2024-03-06T05:00:33;8.85;;;4.28;;
67433;SDS011;54305;47.950;6.572;2024-03-06T05:02:59;10.00;;;4.32;;
67433;SDS011;54305;47.950;6.572;2024-03-06T05:05:24;10.27;;;4.95;;
67433;SDS011;54305;47.950;6.572;2024-03-06T05:07:50;9.95;;;4.97;;
67433;SDS011;54305;47.950;6.572;2024-03-06T05:10:15;10.77;;;4.90;;
67433;SDS011;54305;47.950;6.572;2024-03-06T05:12:41;10.13;;;4.10;;
67433;SDS011;54305;47.950;6.572;2024-03-06T05:15:07;8.60;;;4.65;;
67433;SDS011;54305;47.950;6.572;2024-03-06T05:17:33;10.30;;;4.70;;
67433;SDS011;54305;47.950;6.572;2024-03-06T05:19:59;9.68;;;3.85;;
67433;SDS011;54305;47.950;6.572;2024-03-06T05:22:25;9.07;;;4.15;;
67433;SDS011;54305;47.950;6.572;2024-03-06T05:24:51;11.48;;;4.80;;
67433;SDS011;54305;47.950;6.572;2024-03-06T05:27:17;17.10;;;5.70;;
67433;SDS011;54305;47.950;6.572;2024-03-06T05:29:43;15.25;;;6.18;;
67433;SDS011;54305;47.950;6.572;2024-03-06T05:32:09;16.33;;;5.78;;
67433;SDS011;54305;47.950;6.572;2024-03-06T05:34:34;49.08;;;7.22;;
67433;SDS011;54305;47.950;6.572;2024-03-06T05:37:00;103.88;;;10.07;;
67433;SDS011;54305;47.950;6.572;2024-03-06T05:39:28;20.80;;;5.68;;
67433;SDS011;54305;47.950;6.572;2024-03-06T05:41:54;79.72;;;8.38;;
67433;SDS011;54305;47.950;6.572;2024-03-06T05:44:20;35.42;;;6.18;;
67433;SDS011;54305;47.950;6.572;2024-03-06T05:46:46;17.58;;;5.57;;
67433;SDS011;54305;47.950;6.572;2024-03-06T05:49:12;12.27;;;5.40;;
67433;SDS011;54305;47.950;6.572;2024-03-06T05:51:38;93.32;;;8.82;;
67433;SDS011;54305;47.950;6.572;2024-03-06T05:54:04;139.38;;;12.48;;
67433;SDS011;54305;47.950;6.572;2024-03-06T05:56:31;84.57;;;8.25;;
67433;SDS011;54305;47.950;6.572;2024-03-06T05:58:56;91.85;;;10.63;;
67433;SDS011;54305;47.950;6.572;2024-03-06T06:01:22;46.92;;;7.38;;
67433;SDS011;54305;47.950;6.572;2024-03-06T06:03:48;187.25;;;14.93;;
67433;SDS011;54305;47.950;6.572;2024-03-06T06:06:16;40.40;;;6.57;;
67433;SDS011;54305;47.950;6.572;2024-03-06T06:08:42;100.20;;;10.23;;
67433;SDS011;54305;47.950;6.572;2024-03-06T06:11:09;67.30;;;9.07;;
67433;SDS011;54305;47.950;6.572;2024-03-06T06:13:35;33.55;;;5.93;;
67433;SDS011;54305;47.950;6.572;2024-03-06T06:16:00;39.78;;;7.68;;
67433;SDS011;54305;47.950;6.572;2024-03-06T06:18:28;87.40;;;8.80;;
67433;SDS011;54305;47.950;6.572;2024-03-06T06:20:54;167.40;;;12.80;;
67433;SDS011;54305;47.950;6.572;2024-03-06T06:23:19;33.90;;;6.22;;
67433;SDS011;54305;47.950;6.572;2024-03-06T06:25:45;43.47;;;7.03;;
67433;SDS011;54305;47.950;6.572;2024-03-06T06:28:10;105.53;;;9.93;;
67433;SDS011;54305;47.950;6.572;2024-03-06T06:30:36;48.50;;;7.90;;
67433;SDS011;54305;47.950;6.572;2024-03-06T06:33:03;31.67;;;6.22;;
67433;SDS011;54305;47.950;6.572;2024-03-06T06:35:29;35.38;;;6.05;;
67433;SDS011;54305;47.950;6.572;2024-03-06T06:37:55;31.70;;;5.95;;
67433;SDS011;54305;47.950;6.572;2024-03-06T06:40:20;105.10;;;10.50;;
67433;SDS011;54305;47.950;6.572;2024-03-06T06:42:49;84.65;;;8.57;;
67433;SDS011;54305;47.950;6.572;2024-03-06T06:45:18;33.42;;;5.97;;
67433;SDS011;54305;47.950;6.572;2024-03-06T06:47:44;74.93;;;7.90;;
67433;SDS011;54305;47.950;6.572;2024-03-06T06:50:10;169.63;;;12.52;;
67433;SDS011;54305;47.950;6.572;2024-03-06T06:52:37;176.30;;;12.57;;
67433;SDS011;54305;47.950;6.572;2024-03-06T06:55:05;45.70;;;7.50;;
67433;SDS011;54305;47.950;6.572;2024-03-06T06:57:31;43.20;;;8.02;;
67433;SDS011;54305;47.950;6.572;2024-03-06T06:59:58;64.10;;;8.63;;
67433;SDS011;54305;47.950;6.572;2024-03-06T07:02:24;90.95;;;9.52;;
67433;SDS011;54305;47.950;6.572;2024-03-06T07:04:50;70.82;;;8.75;;
67433;SDS011;54305;47.950;6.572;2024-03-06T07:07:15;32.33;;;7.70;;
67433;SDS011;54305;47.950;6.572;2024-03-06T07:09:42;39.17;;;7.22;;
67433;SDS011;54305;47.950;6.572;2024-03-06T07:12:08;37.75;;;6.75;;
67433;SDS011;54305;47.950;6.572;2024-03-06T07:14:34;77.93;;;8.15;;
67433;SDS011;54305;47.950;6.572;2024-03-06T07:16:59;24.25;;;6.22;;
67433;SDS011;54305;47.950;6.572;2024-03-06T07:19:24;35.35;;;6.38;;
67433;SDS011;54305;47.950;6.572;2024-03-06T07:21:50;89.35;;;8.48;;
67433;SDS011;54305;47.950;6.572;2024-03-06T07:24:15;15.10;;;5.47;;
67433;SDS011;54305;47.950;6.572;2024-03-06T07:26:41;25.23;;;5.78;;
67433;SDS011;54305;47.950;6.572;2024-03-06T07:29:06;12.50;;;5.45;;
67433;SDS011;54305;47.950;6.572;2024-03-06T07:31:38;21.20;;;5.40;;
67433;SDS011;54305;47.950;6.572;2024-03-06T07:34:04;13.65;;;5.30;;
67433;SDS011;54305;47.950;6.572;2024-03-06T07:36:33;15.02;;;5.05;;
67433;SDS011;54305;47.950;6.572;2024-03-06T07:38:59;15.13;;;5.57;;
67433;SDS011;54305;47.950;6.572;2024-03-06T07:41:25;13.80;;;4.82;;
67433;SDS011;54305;47.950;6.572;2024-03-06T07:43:50;11.70;;;5.32;;
67433;SDS011;54305;47.950;6.572;2024-03-06T07:46:16;16.10;;;5.53;;
67433;SDS011;54305;47.950;6.572;2024-03-06T07:48:44;16.23;;;6.15;;
67433;SDS011;54305;47.950;6.572;2024-03-06T07:51:09;11.55;;;4.80;;
67433;SDS011;54305;47.950;6.572;2024-03-06T07:53:35;10.40;;;4.00;;
67433;SDS011;54305;47.950;6.572;2024-03-06T07:56:01;10.57;;;4.15;;
67433;SDS011;54305;47.950;6.572;2024-03-06T07:58:28;8.95;;;4.50;;
67433;SDS011;54305;47.950;6.572;2024-03-06T08:00:53;11.65;;;4.65;;
67433;SDS011;54305;47.950;6.572;2024-03-06T08:03:20;9.95;;;4.22;;
67433;SDS011;54305;47.950;6.572;2024-03-06T08:05:47;9.90;;;4.43;;
67433;SDS011;54305;47.950;6.572;2024-03-06T08:08:14;10.75;;;4.28;;
67433;SDS011;54305;47.950;6.572;2024-03-06T08:10:40;10.15;;;3.78;;
67433;SDS011;54305;47.950;6.572;2024-03-06T08:13:05;11.05;;;4.25;;
67433;SDS011;54305;47.950;6.572;2024-03-06T08:15:31;6.82;;;3.53;;
67433;SDS011;54305;47.950;6.572;2024-03-06T08:17:56;8.70;;;3.80;;
67433;SDS011;54305;47.950;6.572;2024-03-06T08:20:21;7.90;;;3.58;;
67433;SDS011;54305;47.950;6.572;2024-03-06T08:22:47;13.45;;;4.18;;
67433;SDS011;54305;47.950;6.572;2024-03-06T08:25:12;10.95;;;4.43;;
67433;SDS011;54305;47.950;6.572;2024-03-06T08:27:41;9.27;;;4.50;;
67433;SDS011;54305;47.950;6.572;2024-03-06T08:30:07;11.18;;;3.95;;
67433;SDS011;54305;47.950;6.572;2024-03-06T08:32:34;12.55;;;4.93;;
67433;SDS011;54305;47.950;6.572;2024-03-06T08:35:03;12.05;;;5.03;;
67433;SDS011;54305;47.950;6.572;2024-03-06T08:37:32;13.00;;;5.03;;
67433;SDS011;54305;47.950;6.572;2024-03-06T08:39:59;11.15;;;4.97;;
67433;SDS011;54305;47.950;6.572;2024-03-06T08:42:25;15.27;;;5.47;;
67433;SDS011;54305;47.950;6.572;2024-03-06T08:44:50;12.50;;;5.10;;
67433;SDS011;54305;47.950;6.572;2024-03-06T08:47:16;12.88;;;4.70;;
67433;SDS011;54305;47.950;6.572;2024-03-06T08:49:41;11.20;;;4.35;;
67433;SDS011;54305;47.950;6.572;2024-03-06T08:52:07;10.30;;;4.88;;
67433;SDS011;54305;47.950;6.572;2024-03-06T08:54:34;11.88;;;4.40;;
67433;SDS011;54305;47.950;6.572;2024-03-06T08:57:00;10.80;;;4.85;;
67433;SDS011;54305;47.950;6.572;2024-03-06T08:59:27;14.25;;;5.53;;
67433;SDS011;54305;47.950;6.572;2024-03-06T09:01:53;13.02;;;5.45;;
67433;SDS011;54305;47.950;6.572;2024-03-06T09:04:20;13.45;;;4.82;;
67433;SDS011;54305;47.950;6.572;2024-03-06T09:06:46;14.00;;;5.43;;
67433;SDS011;54305;47.950;6.572;2024-03-06T09:09:11;10.52;;;5.72;;
67433;SDS011;54305;47.950;6.572;2024-03-06T09:11:40;11.27;;;4.78;;
67433;SDS011;54305;47.950;6.572;2024-03-06T09:14:06;11.07;;;5.38;;
67433;SDS011;54305;47.950;6.572;2024-03-06T09:16:33;10.63;;;5.30;;
67433;SDS011;54305;47.950;6.572;2024-03-06T09:18:58;10.95;;;5.97;;
67433;SDS011;54305;47.950;6.572;2024-03-06T09:21:23;12.30;;;5.20;;
67433;SDS011;54305;47.950;6.572;2024-03-06T09:23:49;8.05;;;3.67;;
67433;SDS011;54305;47.950;6.572;2024-03-06T09:26:16;11.20;;;4.97;;
67433;SDS011;54305;47.950;6.572;2024-03-06T09:28:42;8.68;;;3.67;;
67433;SDS011;54305;47.950;6.572;2024-03-06T09:31:07;8.45;;;3.50;;
67433;SDS011;54305;47.950;6.572;2024-03-06T09:33:33;10.18;;;3.65;;
67433;SDS011;54305;47.950;6.572;2024-03-06T09:35:58;6.93;;;3.45;;
67433;SDS011;54305;47.950;6.572;2024-03-06T09:38:24;9.35;;;3.70;;
67433;SDS011;54305;47.950;6.572;2024-03-06T09:40:49;9.30;;;4.00;;
67433;SDS011;54305;47.950;6.572;2024-03-06T09:43:16;8.65;;;4.20;;
67433;SDS011;54305;47.950;6.572;2024-03-06T09:45:43;10.20;;;4.43;;
67433;SDS011;54305;47.950;6.572;2024-03-06T09:48:13;8.02;;;3.60;;
67433;SDS011;54305;47.950;6.572;2024-03-06T09:50:38;9.63;;;4.47;;
67433;SDS011;54305;47.950;6.572;2024-03-06T09:53:10;9.98;;;4.13;;
67433;SDS011;54305;47.950;6.572;2024-03-06T09:55:40;9.32;;;3.42;;
67433;SDS011;54305;47.950;6.572;2024-03-06T09:58:06;10.85;;;3.95;;
67433;SDS011;54305;47.950;6.572;2024-03-06T10:00:33;8.75;;;3.90;;
67433;SDS011;54305;47.950;6.572;2024-03-06T10:03:00;11.00;;;4.28;;
67433;SDS011;54305;47.950;6.572;2024-03-06T10:05:28;8.82;;;3.60;;
67433;SDS011;54305;47.950;6.572;2024-03-06T10:07:55;7.88;;;3.90;;
67433;SDS011;54305;47.950;6.572;2024-03-06T10:10:20;11.25;;;3.97;;
67433;SDS011;54305;47.950;6.572;2024-03-06T10:12:49;8.48;;;3.72;;
67433;SDS011;54305;47.950;6.572;2024-03-06T10:15:14;9.93;;;3.95;;
67433;SDS011;54305;47.950;6.572;2024-03-06T10:17:40;10.43;;;4.20;;
67433;SDS011;54305;47.950;6.572;2024-03-06T10:22:51;9.00;;;3.72;;
67433;SDS011;54305;47.950;6.572;2024-03-06T10:25:19;15.20;;;4.15;;
67433;SDS011;54305;47.950;6.572;2024-03-06T10:30:36;7.18;;;3.25;;
67433;SDS011;54305;47.950;6.572;2024-03-06T10:33:03;9.75;;;3.38;;
67433;SDS011;54305;47.950;6.572;2024-03-06T10:35:32;10.60;;;3.60;;
67433;SDS011;54305;47.950;6.572;2024-03-06T10:38:01;6.38;;;3.40;;
67433;SDS011;54305;47.950;6.572;2024-03-06T10:40:27;7.88;;;3.75;;
67433;SDS011;54305;47.950;6.572;2024-03-06T10:42:56;8.63;;;3.40;;
67433;SDS011;54305;47.950;6.572;2024-03-06T10:45:23;6.22;;;2.83;;
67433;SDS011;54305;47.950;6.572;2024-03-06T10:47:58;5.60;;;2.58;;
67433;SDS011;54305;47.950;6.572;2024-03-06T10:50:24;5.82;;;2.67;;
67433;SDS011;54305;47.950;6.572;2024-03-06T10:52:49;4.75;;;2.75;;
67433;SDS011;54305;47.950;6.572;2024-03-06T10:55:18;6.45;;;2.97;;
67433;SDS011;54305;47.950;6.572;2024-03-06T10:57:46;5.43;;;2.50;;
67433;SDS011;54305;47.950;6.572;2024-03-06T11:00:13;4.68;;;2.80;;
67433;SDS011;54305;47.950;6.572;2024-03-06T11:02:45;6.00;;;2.40;;
67433;SDS011;54305;47.950;6.572;2024-03-06T11:05:12;5.13;;;2.40;;
67433;SDS011;54305;47.950;6.572;2024-03-06T11:07:39;6.60;;;2.80;;
67433;SDS011;54305;47.950;6.572;2024-03-06T11:10:04;8.10;;;2.67;;
67433;SDS011;54305;47.950;6.572;2024-03-06T11:12:36;5.20;;;2.40;;
67433;SDS011;54305;47.950;6.572;2024-03-06T11:15:16;4.47;;;2.00;;
67433;SDS011;54305;47.950;6.572;2024-03-06T11:17:42;5.25;;;2.10;;
67433;SDS011;54305;47.950;6.572;2024-03-06T11:20:08;6.07;;;2.30;;
67433;SDS011;54305;47.950;6.572;2024-03-06T11:28:11;3.88;;;1.30;;
67433;SDS011;54305;47.950;6.572;2024-03-06T11:33:35;2.03;;;1.20;;
67433;SDS011;54305;47.950;6.572;2024-03-06T11:41:29;5.30;;;1.65;;
67433;SDS011;54305;47.950;6.572;2024-03-06T11:43:56;4.20;;;1.73;;
67433;SDS011;54305;47.950;6.572;2024-03-06T11:49:35;2.40;;;1.10;;
67433;SDS011;54305;47.950;6.572;2024-03-06T11:52:05;4.68;;;1.88;;
67433;SDS011;54305;47.950;6.572;2024-03-06T11:54:33;3.92;;;1.92;;
67433;SDS011;54305;47.950;6.572;2024-03-06T11:56:59;4.47;;;2.13;;
67433;SDS011;54305;47.950;6.572;2024-03-06T11:59:27;3.30;;;1.25;;
67433;SDS011;54305;47.950;6.572;2024-03-06T12:01:53;1.55;;;1.00;;
67433;SDS011;54305;47.950;6.572;2024-03-06T12:04:20;3.63;;;1.10;;
67433;SDS011;54305;47.950;6.572;2024-03-06T12:06:46;2.22;;;1.23;;
67433;SDS011;54305;47.950;6.572;2024-03-06T12:09:13;2.67;;;1.50;;
67433;SDS011;54305;47.950;6.572;2024-03-06T12:11:38;2.05;;;1.27;;
67433;SDS011;54305;47.950;6.572;2024-03-06T12:14:03;2.35;;;1.20;;
67433;SDS011;54305;47.950;6.572;2024-03-06T12:16:30;3.65;;;1.60;;
67433;SDS011;54305;47.950;6.572;2024-03-06T12:18:56;3.13;;;1.30;;
67433;SDS011;54305;47.950;6.572;2024-03-06T12:21:28;2.28;;;1.00;;
67433;SDS011;54305;47.950;6.572;2024-03-06T12:24:05;2.03;;;0.90;;
67433;SDS011;54305;47.950;6.572;2024-03-06T12:26:31;2.55;;;1.45;;
67433;SDS011;54305;47.950;6.572;2024-03-06T12:29:03;2.25;;;1.10;;
67433;SDS011;54305;47.950;6.572;2024-03-06T12:31:31;4.80;;;1.40;;
67433;SDS011;54305;47.950;6.572;2024-03-06T12:33:57;2.25;;;0.93;;
67433;SDS011;54305;47.950;6.572;2024-03-06T12:36:25;2.67;;;1.05;;
67433;SDS011;54305;47.950;6.572;2024-03-06T12:39:09;2.97;;;1.00;;
67433;SDS011;54305;47.950;6.572;2024-03-06T12:41:38;3.97;;;1.10;;
67433;SDS011;54305;47.950;6.572;2024-03-06T12:44:05;2.50;;;0.95;;
67433;SDS011;54305;47.950;6.572;2024-03-06T12:46:32;2.50;;;1.20;;
67433;SDS011;54305;47.950;6.572;2024-03-06T12:48:57;3.50;;;1.10;;
67433;SDS011;54305;47.950;6.572;2024-03-06T12:51:23;5.55;;;1.17;;
67433;SDS011;54305;47.950;6.572;2024-03-06T12:53:48;3.10;;;1.08;;
67433;SDS011;54305;47.950;6.572;2024-03-06T12:56:14;2.15;;;1.25;;
67433;SDS011;54305;47.950;6.572;2024-03-06T12:58:39;2.30;;;0.80;;
67433;SDS011;54305;47.950;6.572;2024-03-06T13:01:05;4.95;;;1.55;;
67433;SDS011;54305;47.950;6.572;2024-03-06T13:03:30;3.95;;;1.52;;
67433;SDS011;54305;47.950;6.572;2024-03-06T13:05:56;5.82;;;1.42;;
67433;SDS011;54305;47.950;6.572;2024-03-06T13:08:22;4.13;;;1.02;;
67433;SDS011;54305;47.950;6.572;2024-03-06T13:10:47;4.30;;;1.25;;
67433;SDS011;54305;47.950;6.572;2024-03-06T13:13:13;2.63;;;1.10;;
67433;SDS011;54305;47.950;6.572;2024-03-06T13:15:38;3.28;;;1.10;;
67433;SDS011;54305;47.950;6.572;2024-03-06T13:18:04;2.22;;;1.02;;
67433;SDS011;54305;47.950;6.572;2024-03-06T13:20:29;5.00;;;1.10;;
67433;SDS011;54305;47.950;6.572;2024-03-06T13:22:55;6.93;;;1.13;;
67433;SDS011;54305;47.950;6.572;2024-03-06T13:25:21;2.88;;;1.27;;
67433;SDS011;54305;47.950;6.572;2024-03-06T13:27:46;2.40;;;1.00;;
67433;SDS011;54305;47.950;6.572;2024-03-06T13:30:12;2.90;;;1.10;;
67433;SDS011;54305;47.950;6.572;2024-03-06T13:32:38;3.17;;;1.20;;
67433;SDS011;54305;47.950;6.572;2024-03-06T13:35:03;2.05;;;1.15;;
67433;SDS011;54305;47.950;6.572;2024-03-06T13:37:31;2.35;;;0.80;;
67433;SDS011;54305;47.950;6.572;2024-03-06T13:39:57;2.45;;;0.88;;
67433;SDS011;54305;47.950;6.572;2024-03-06T13:42:28;1.73;;;0.98;;
67433;SDS011;54305;47.950;6.572;2024-03-06T13:44:53;2.95;;;1.25;;
67433;SDS011;54305;47.950;6.572;2024-03-06T13:47:19;2.95;;;1.10;;
67433;SDS011;54305;47.950;6.572;2024-03-06T13:49:44;2.72;;;1.10;;
67433;SDS011;54305;47.950;6.572;2024-03-06T13:52:10;2.83;;;0.85;;
67433;SDS011;54305;47.950;6.572;2024-03-06T13:54:39;2.08;;;1.08;;
67433;SDS011;54305;47.950;6.572;2024-03-06T13:57:06;4.70;;;1.10;;
67433;SDS011;54305;47.950;6.572;2024-03-06T13:59:32;2.30;;;1.20;;
67433;SDS011;54305;47.950;6.572;2024-03-06T14:01:58;4.07;;;1.10;;
67433;SDS011;54305;47.950;6.572;2024-03-06T14:04:24;3.33;;;0.95;;
67433;SDS011;54305;47.950;6.572;2024-03-06T14:06:50;1.65;;;0.90;;
67433;SDS011;54305;47.950;6.572;2024-03-06T14:09:16;2.72;;;1.23;;
67433;SDS011;54305;47.950;6.572;2024-03-06T14:11:42;1.80;;;0.90;;
67433;SDS011;54305;47.950;6.572;2024-03-06T14:14:07;2.30;;;0.90;;
67433;SDS011;54305;47.950;6.572;2024-03-06T14:16:33;4.65;;;1.30;;
67433;SDS011;54305;47.950;6.572;2024-03-06T14:18:59;4.80;;;1.25;;
67433;SDS011;54305;47.950;6.572;2024-03-06T14:21:25;3.70;;;1.05;;
67433;SDS011;54305;47.950;6.572;2024-03-06T14:23:50;4.30;;;1.17;;
67433;SDS011;54305;47.950;6.572;2024-03-06T14:26:15;4.93;;;1.00;;
67433;SDS011;54305;47.950;6.572;2024-03-06T14:28:41;2.15;;;1.10;;
67433;SDS011;54305;47.950;6.572;2024-03-06T14:31:07;3.15;;;1.10;;
67433;SDS011;54305;47.950;6.572;2024-03-06T14:33:33;2.42;;;1.08;;
67433;SDS011;54305;47.950;6.572;2024-03-06T14:35:58;3.15;;;1.40;;
67433;SDS011;54305;47.950;6.572;2024-03-06T14:38:24;1.88;;;0.98;;
67433;SDS011;54305;47.950;6.572;2024-03-06T14:40:50;3.38;;;1.13;;
67433;SDS011;54305;47.950;6.572;2024-03-06T14:43:15;2.92;;;0.85;;
67433;SDS011;54305;47.950;6.572;2024-03-06T14:45:42;4.97;;;1.25;;
67433;SDS011;54305;47.950;6.572;2024-03-06T14:48:09;4.55;;;1.02;;
67433;SDS011;54305;47.950;6.572;2024-03-06T14:50:35;1.88;;;1.05;;
67433;SDS011;54305;47.950;6.572;2024-03-06T14:53:00;1.08;;;0.90;;
67433;SDS011;54305;47.950;6.572;2024-03-06T14:55:26;2.05;;;1.00;;
67433;SDS011;54305;47.950;6.572;2024-03-06T14:57:52;2.78;;;1.05;;